createdAt,value
2023-04-25T00:00:36.066Z,86.70
2023-04-25T00:01:36.478Z,87.11
2023-04-25T00:02:37.031Z,87.27
2023-04-25T00:03:37.179Z,87.17
2023-04-25T00:04:37.298Z,86.41
2023-04-25T00:05:37.360Z,83.28
2023-04-25T00:06:37.802Z,83.90
2023-04-25T00:07:38.226Z,84.93
2023-04-25T00:08:38.645Z,85.28
2023-04-25T00:09:39.090Z,86.31
2023-04-25T00:10:39.533Z,86.10
2023-04-25T00:11:39.985Z,86.41
2023-04-25T00:12:40.424Z,86.41
2023-04-25T00:13:40.860Z,86.31
2023-04-25T00:14:41.292Z,85.79
2023-04-25T00:15:41.794Z,85.38
2023-04-25T00:16:42.538Z,85.17
2023-04-25T00:17:42.476Z,84.97
2023-04-25T00:18:42.924Z,84.14
2023-04-25T00:19:43.383Z,83.39
2023-04-25T00:20:43.861Z,82.11
2023-04-25T00:21:44.317Z,78.99
2023-04-25T00:22:44.764Z,78.78
2023-04-25T00:23:45.193Z,77.96
2023-04-25T00:24:45.629Z,77.62
2023-04-25T00:25:46.075Z,76.93
2023-04-25T00:26:46.501Z,76.79
2023-04-25T00:27:46.913Z,75.87
2023-04-25T00:28:47.329Z,75.87
2023-04-25T00:29:47.752Z,75.15
2023-04-25T00:30:48.182Z,74.50
2023-04-25T00:31:48.646Z,74.08
2023-04-25T00:32:49.176Z,73.47
2023-04-25T00:33:49.809Z,73.36
2023-04-25T00:34:49.796Z,73.68
2023-04-25T00:35:50.250Z,73.13
2023-04-25T00:36:50.661Z,73.23
2023-04-25T00:37:51.069Z,73.33
2023-04-25T00:38:51.546Z,73.44
2023-04-25T00:39:52.019Z,73.36
2023-04-25T00:40:52.500Z,73.78
2023-04-25T00:41:52.945Z,73.68
2023-04-25T00:42:53.378Z,74.08
2023-04-25T00:43:53.935Z,74.29
2023-04-25T00:44:54.357Z,74.40
2023-04-25T00:45:54.791Z,74.91
2023-04-25T00:46:55.301Z,74.80
2023-04-25T00:47:55.831Z,74.60
2023-04-25T00:48:56.295Z,74.50
2023-04-25T00:49:56.720Z,74.80
2023-04-25T00:50:57.147Z,74.70
2023-04-25T00:51:57.618Z,74.80
2023-04-25T00:52:58.061Z,74.80
2023-04-25T00:53:58.491Z,75.12
2023-04-25T00:54:58.904Z,75.97
2023-04-25T00:55:59.316Z,76.18
2023-04-25T00:56:59.732Z,76.38
2023-04-25T00:58:00.155Z,76.38
2023-04-25T00:59:00.575Z,77.10
2023-04-25T01:00:01.055Z,76.83
2023-04-25T01:01:01.591Z,76.83
2023-04-25T01:02:02.187Z,77.14
2023-04-25T01:03:02.182Z,76.83
2023-04-25T01:04:02.188Z,77.34
2023-04-25T01:05:02.649Z,76.93
2023-04-25T01:06:03.070Z,77.03
2023-04-25T01:07:03.480Z,76.73
2023-04-25T01:08:03.898Z,76.73
2023-04-25T01:09:04.319Z,76.42
2023-04-25T01:10:04.816Z,76.21
2023-04-25T01:11:05.258Z,76.42
2023-04-25T01:12:05.672Z,76.83
2023-04-25T01:13:06.093Z,76.73
2023-04-25T01:14:06.527Z,76.93
2023-04-25T01:15:06.963Z,75.90
2023-04-25T01:16:07.460Z,76.01
2023-04-25T01:17:08.003Z,75.70
2023-04-25T01:18:08.057Z,76.01
2023-04-25T01:19:08.512Z,76.01
2023-04-25T01:20:08.944Z,75.80
2023-04-25T01:21:09.359Z,75.80
2023-04-25T01:22:09.775Z,75.39
2023-04-25T01:23:10.171Z,75.59
2023-04-25T01:24:10.581Z,75.70
2023-04-25T01:25:10.995Z,75.39
2023-04-25T01:26:11.417Z,75.59
2023-04-25T01:27:11.841Z,74.87
2023-04-25T01:28:12.302Z,76.31
2023-04-25T01:29:12.761Z,77.17
2023-04-25T01:30:13.234Z,77.79
2023-04-25T01:31:13.729Z,78.44
2023-04-25T01:32:14.222Z,78.58
2023-04-25T01:33:14.695Z,78.65
2023-04-25T01:34:15.124Z,78.89
2023-04-25T01:35:15.566Z,79.06
2023-04-25T01:36:16.018Z,79.37
2023-04-25T01:37:16.446Z,79.47
2023-04-25T01:38:16.886Z,79.47
2023-04-25T01:39:17.308Z,79.68
2023-04-25T01:40:17.736Z,80.95
2023-04-25T01:41:18.178Z,81.88
2023-04-25T01:42:18.593Z,82.54
2023-04-25T01:43:19.020Z,83.15
2023-04-25T01:44:19.487Z,83.36
2023-04-25T01:45:19.950Z,83.47
2023-04-25T01:46:20.536Z,83.32
2023-04-25T01:47:20.411Z,83.22
2023-04-25T01:48:20.870Z,83.12
2023-04-25T01:49:21.314Z,83.12
2023-04-25T01:50:21.764Z,82.81
2023-04-25T01:51:22.216Z,83.42
2023-04-25T01:52:22.639Z,83.22
2023-04-25T01:53:23.042Z,83.22
2023-04-25T01:54:23.451Z,82.91
2023-04-25T01:55:23.864Z,83.22
2023-04-25T01:56:24.320Z,83.22
2023-04-25T01:57:24.731Z,84.59
2023-04-25T01:58:25.154Z,85.15
2023-04-25T01:59:25.581Z,85.60
2023-04-25T02:00:26.032Z,86.63
2023-04-25T02:01:26.486Z,86.94
2023-04-25T02:02:27.105Z,86.63
2023-04-25T02:03:27.210Z,86.94
2023-04-25T02:04:27.306Z,86.94
2023-04-25T02:05:27.264Z,87.35
2023-04-25T02:06:27.703Z,87.29
2023-04-25T02:07:28.147Z,87.71
2023-04-25T02:08:28.583Z,87.92
2023-04-25T02:09:28.995Z,87.92
2023-04-25T02:10:29.416Z,87.46
2023-04-25T02:11:29.851Z,86.84
2023-04-25T02:12:30.305Z,86.78
2023-04-25T02:13:30.766Z,86.98
2023-04-25T02:14:31.217Z,87.29
2023-04-25T02:15:31.674Z,87.40
2023-04-25T02:16:32.322Z,87.60
2023-04-25T02:17:32.222Z,87.71
2023-04-25T02:18:32.645Z,88.12
2023-04-25T02:19:33.083Z,88.43
2023-04-25T02:20:33.508Z,88.32
2023-04-25T02:21:33.935Z,88.32
2023-04-25T02:22:34.378Z,88.74
2023-04-25T02:23:34.804Z,88.53
2023-04-25T02:24:35.233Z,89.36
2023-04-25T02:25:35.660Z,89.15
2023-04-25T02:26:36.084Z,89.56
2023-04-25T02:27:36.511Z,90.08
2023-04-25T02:28:36.972Z,90.59
2023-04-25T02:29:37.388Z,90.39
2023-04-25T02:30:37.812Z,90.19
2023-04-25T02:31:38.264Z,90.28
2023-04-25T02:32:38.732Z,89.87
2023-04-25T02:33:39.190Z,89.67
2023-04-25T02:34:39.635Z,89.77
2023-04-25T02:35:40.078Z,90.39
2023-04-25T02:36:40.502Z,90.80
2023-04-25T02:37:40.936Z,90.91
2023-04-25T02:38:41.369Z,90.28
2023-04-25T02:39:41.813Z,91.01
2023-04-25T02:40:42.243Z,92.14
2023-04-25T02:41:42.670Z,92.14
2023-04-25T02:42:43.096Z,92.19
2023-04-25T02:43:43.536Z,92.29
2023-04-25T02:44:43.987Z,91.88
2023-04-25T02:45:44.417Z,91.77
2023-04-25T02:46:44.930Z,91.98
2023-04-25T02:47:45.473Z,92.29
2023-04-25T02:48:45.979Z,92.50
2023-04-25T02:49:46.466Z,92.29
2023-04-25T02:50:46.919Z,91.42
2023-04-25T02:51:47.372Z,91.22
2023-04-25T02:52:47.824Z,90.76
2023-04-25T02:53:48.390Z,90.04
2023-04-25T02:54:48.333Z,90.08
2023-04-25T02:55:48.776Z,90.59
2023-04-25T02:56:49.241Z,90.04
2023-04-25T02:57:49.704Z,89.22
2023-04-25T02:58:50.156Z,89.73
2023-04-25T02:59:50.580Z,90.39
2023-04-25T03:00:51.023Z,91.01
2023-04-25T03:01:51.474Z,91.73
2023-04-25T03:02:52.048Z,92.35
2023-04-25T03:03:52.226Z,92.29
2023-04-25T03:04:52.318Z,92.80
2023-04-25T03:05:52.756Z,93.12
2023-04-25T03:06:53.187Z,93.57
2023-04-25T03:07:53.648Z,93.22
2023-04-25T03:08:54.119Z,92.85
2023-04-25T03:09:54.590Z,92.40
2023-04-25T03:10:55.034Z,92.29
2023-04-25T03:11:55.490Z,92.19
2023-04-25T03:12:55.933Z,92.08
2023-04-25T03:13:56.386Z,91.94
2023-04-25T03:14:56.829Z,91.52
2023-04-25T03:15:57.266Z,91.42
2023-04-25T03:16:57.783Z,91.22
2023-04-25T03:17:57.785Z,90.80
2023-04-25T03:18:58.262Z,91.01
2023-04-25T03:19:58.695Z,90.70
2023-04-25T03:20:59.134Z,90.39
2023-04-25T03:21:59.554Z,90.91
2023-04-25T03:22:59.989Z,90.86
2023-04-25T03:24:00.412Z,90.97
2023-04-25T03:25:00.849Z,90.35
2023-04-25T03:26:01.270Z,89.67
2023-04-25T03:27:01.700Z,89.87
2023-04-25T03:28:02.126Z,90.22
2023-04-25T03:29:02.532Z,90.64
2023-04-25T03:30:02.970Z,90.84
2023-04-25T03:31:03.411Z,91.36
2023-04-25T03:32:03.913Z,91.16
2023-04-25T03:33:03.907Z,91.46
2023-04-25T03:34:04.391Z,91.77
2023-04-25T03:35:04.819Z,92.23
2023-04-25T03:36:05.237Z,92.64
2023-04-25T03:37:05.682Z,93.47
2023-04-25T03:38:06.112Z,94.09
2023-04-25T03:39:06.543Z,93.47
2023-04-25T03:40:06.976Z,93.51
2023-04-25T03:41:07.416Z,93.62
2023-04-25T03:42:07.952Z,93.62
2023-04-25T03:43:08.452Z,93.72
2023-04-25T03:44:08.896Z,93.37
2023-04-25T03:45:09.341Z,92.80
2023-04-25T03:46:09.808Z,91.98
2023-04-25T03:47:10.249Z,91.88
2023-04-25T03:48:10.680Z,92.08
2023-04-25T03:49:11.109Z,91.83
2023-04-25T03:50:11.544Z,92.08
2023-04-25T03:51:11.988Z,92.29
2023-04-25T03:52:12.443Z,92.85
2023-04-25T03:53:12.900Z,92.74
2023-04-25T03:54:13.310Z,93.10
2023-04-25T03:55:13.758Z,93.72
2023-04-25T03:56:14.210Z,94.23
2023-04-25T03:57:14.672Z,93.93
2023-04-25T03:58:15.111Z,93.72
2023-04-25T03:59:15.530Z,93.82
2023-04-25T04:00:15.975Z,93.98
2023-04-25T04:01:16.424Z,93.37
2023-04-25T04:02:16.972Z,92.95
2023-04-25T04:03:17.158Z,93.26
2023-04-25T04:04:17.393Z,93.72
2023-04-25T04:05:17.568Z,93.82
2023-04-25T04:06:17.511Z,93.93
2023-04-25T04:07:17.953Z,93.62
2023-04-25T04:08:18.412Z,93.51
2023-04-25T04:09:18.864Z,94.07
2023-04-25T04:10:19.305Z,93.93
2023-04-25T04:11:19.862Z,93.41
2023-04-25T04:12:20.294Z,92.95
2023-04-25T04:13:20.710Z,93.05
2023-04-25T04:14:21.119Z,92.64
2023-04-25T04:15:21.533Z,92.95
2023-04-25T04:16:22.028Z,93.26
2023-04-25T04:17:22.584Z,93.05
2023-04-25T04:18:23.075Z,92.74
2023-04-25T04:19:23.514Z,92.33
2023-04-25T04:20:23.970Z,92.02
2023-04-25T04:21:24.411Z,91.92
2023-04-25T04:22:24.933Z,91.82
2023-04-25T04:23:25.386Z,92.33
2023-04-25T04:24:25.823Z,92.79
2023-04-25T04:25:26.270Z,93.51
2023-04-25T04:26:26.724Z,93.30
2023-04-25T04:27:27.166Z,93.20
2023-04-25T04:28:27.641Z,93.72
2023-04-25T04:29:28.094Z,93.82
2023-04-25T04:30:28.526Z,94.03
2023-04-25T04:31:29.069Z,93.93
2023-04-25T04:32:29.021Z,93.82
2023-04-25T04:33:29.472Z,93.88
2023-04-25T04:34:29.909Z,93.26
2023-04-25T04:35:30.357Z,93.26
2023-04-25T04:36:30.784Z,93.37
2023-04-25T04:37:31.228Z,93.78
2023-04-25T04:38:31.677Z,93.68
2023-04-25T04:39:32.115Z,93.78
2023-04-25T04:40:32.560Z,93.05
2023-04-25T04:41:33.024Z,92.85
2023-04-25T04:42:33.479Z,93.01
2023-04-25T04:43:33.945Z,92.50
2023-04-25T04:44:34.419Z,92.40
2023-04-25T04:45:34.889Z,92.19
2023-04-25T04:46:35.356Z,92.80
2023-04-25T04:47:35.874Z,93.32
2023-04-25T04:48:36.397Z,93.22
2023-04-25T04:49:36.856Z,92.80
2023-04-25T04:50:37.319Z,92.60
2023-04-25T04:51:37.786Z,92.29
2023-04-25T04:52:38.241Z,92.25
2023-04-25T04:53:38.690Z,91.52
2023-04-25T04:54:39.143Z,91.73
2023-04-25T04:55:39.583Z,91.73
2023-04-25T04:56:40.044Z,91.52
2023-04-25T04:57:40.515Z,91.98
2023-04-25T04:58:40.994Z,91.88
2023-04-25T04:59:41.441Z,91.36
2023-04-25T05:00:41.932Z,91.36
2023-04-25T05:01:42.409Z,91.52
2023-04-25T05:02:42.929Z,92.14
2023-04-25T05:03:43.012Z,92.08
2023-04-25T05:04:43.124Z,92.55
2023-04-25T05:05:43.631Z,92.55
2023-04-25T05:06:44.101Z,92.25
2023-04-25T05:07:44.660Z,91.83
2023-04-25T05:08:45.139Z,91.88
2023-04-25T05:09:45.599Z,92.08
2023-04-25T05:10:46.044Z,92.50
2023-04-25T05:11:46.502Z,91.77
2023-04-25T05:12:46.960Z,91.67
2023-04-25T05:13:47.426Z,92.23
2023-04-25T05:14:47.856Z,92.60
2023-04-25T05:15:48.306Z,92.29
2023-04-25T05:16:48.839Z,92.08
2023-04-25T05:17:49.367Z,91.42
2023-04-25T05:18:49.814Z,91.32
2023-04-25T05:19:50.249Z,91.07
2023-04-25T05:20:50.674Z,90.66
2023-04-25T05:21:51.095Z,90.66
2023-04-25T05:22:51.545Z,90.25
2023-04-25T05:23:52.202Z,90.45
2023-04-25T05:24:53.353Z,90.86
2023-04-25T05:25:52.762Z,91.17
2023-04-25T05:26:53.210Z,91.89
2023-04-25T05:27:53.930Z,91.83
2023-04-25T05:28:53.902Z,91.17
2023-04-25T05:29:54.344Z,90.59
2023-04-25T05:30:54.776Z,91.32
2023-04-25T05:31:55.258Z,91.83
2023-04-25T05:32:55.785Z,91.83
2023-04-25T05:33:56.314Z,92.14
2023-04-25T05:34:56.865Z,92.55
2023-04-25T05:35:56.767Z,92.66
2023-04-25T05:36:57.205Z,92.31
2023-04-25T05:37:57.670Z,91.48
2023-04-25T05:38:58.144Z,91.48
2023-04-25T05:39:58.612Z,91.69
2023-04-25T05:40:59.063Z,91.54
2023-04-25T05:41:59.496Z,90.51
2023-04-25T05:42:59.941Z,90.61
2023-04-25T05:44:00.528Z,90.82
2023-04-25T05:45:00.512Z,90.82
2023-04-25T05:46:01.052Z,91.34
2023-04-25T05:47:01.537Z,91.24
2023-04-25T05:48:02.034Z,91.13
2023-04-25T05:49:02.613Z,91.24
2023-04-25T05:50:03.122Z,90.82
2023-04-25T05:51:03.563Z,89.89
2023-04-25T05:52:04.027Z,89.75
2023-04-25T05:53:04.484Z,89.75
2023-04-25T05:54:04.978Z,89.23
2023-04-25T05:55:05.499Z,88.72
2023-04-25T05:56:05.934Z,89.44
2023-04-25T05:57:06.398Z,88.92
2023-04-25T05:58:06.998Z,88.99
2023-04-25T05:59:06.785Z,89.09
2023-04-25T06:00:07.238Z,89.09
2023-04-25T06:01:07.701Z,89.71
2023-04-25T06:02:08.222Z,90.12
2023-04-25T06:03:08.981Z,90.08
2023-04-25T06:04:09.241Z,89.81
2023-04-25T06:05:09.472Z,89.71
2023-04-25T06:06:09.482Z,89.46
2023-04-25T06:07:09.912Z,89.19
2023-04-25T06:08:10.385Z,89.91
2023-04-25T06:09:12.164Z,90.22
2023-04-25T06:10:10.846Z,90.28
2023-04-25T06:11:11.315Z,89.25
2023-04-25T06:12:11.742Z,89.87
2023-04-25T06:13:12.190Z,90.49
2023-04-25T06:14:12.650Z,87.19
2023-04-25T06:15:24.434Z,86.02
2023-04-25T06:16:13.239Z,86.02
2023-04-25T06:17:13.702Z,85.82
2023-04-25T06:18:14.130Z,84.69
2023-04-25T06:19:14.579Z,84.27
2023-04-25T06:20:15.046Z,85.20
2023-04-25T06:21:15.507Z,84.27
2023-04-25T06:22:15.971Z,84.69
2023-04-25T06:23:16.416Z,84.58
2023-04-25T06:24:16.864Z,84.85
2023-04-25T06:25:17.316Z,83.11
2023-04-25T06:26:17.766Z,83.11
2023-04-25T06:27:18.206Z,82.39
2023-04-25T06:28:18.652Z,82.18
2023-04-25T06:29:19.103Z,83.62
2023-04-25T06:30:19.562Z,83.17
2023-04-25T06:31:20.075Z,84.61
2023-04-25T06:32:20.557Z,83.17
2023-04-25T06:33:20.998Z,82.24
2023-04-25T06:34:21.450Z,82.86
2023-04-25T06:35:21.931Z,82.10
2023-04-25T06:36:22.407Z,81.69
2023-04-25T06:37:22.847Z,81.28
2023-04-25T06:38:23.278Z,81.59
2023-04-25T06:39:23.718Z,78.09
2023-04-25T06:40:24.167Z,77.68
2023-04-25T06:41:24.614Z,80.01
2023-04-25T06:42:25.051Z,81.04
2023-04-25T06:43:25.484Z,80.11
2023-04-25T06:44:25.953Z,80.63
2023-04-25T06:45:26.379Z,81.71
2023-04-25T06:46:26.886Z,81.82
2023-04-25T06:47:27.383Z,82.03
2023-04-25T06:48:27.840Z,79.87
2023-04-25T06:49:28.287Z,79.80
2023-04-25T06:50:28.715Z,80.42
2023-04-25T06:51:29.129Z,78.78
2023-04-25T06:52:29.574Z,78.47
2023-04-25T06:53:30.018Z,79.49
2023-04-25T06:54:30.468Z,79.33
2023-04-25T06:55:30.945Z,80.15
2023-04-25T06:56:31.420Z,80.05
2023-04-25T06:57:31.859Z,80.25
2023-04-25T06:58:32.298Z,81.28
2023-04-25T06:59:32.726Z,80.77
2023-04-25T07:00:33.203Z,81.59
2023-04-25T07:01:33.672Z,80.46
2023-04-25T07:02:34.235Z,79.98
2023-04-25T07:03:34.298Z,81.07
2023-04-25T07:04:34.417Z,81.18
2023-04-25T07:05:34.374Z,81.69
2023-04-25T07:06:34.830Z,81.79
2023-04-25T07:07:35.259Z,81.90
2023-04-25T07:08:35.681Z,81.14
2023-04-25T07:09:36.115Z,81.34
2023-04-25T07:10:36.555Z,80.63
2023-04-25T07:11:36.989Z,81.18
2023-04-25T07:12:37.404Z,80.52
2023-04-25T07:13:37.841Z,80.21
2023-04-25T07:14:38.286Z,79.49
2023-04-25T07:15:38.692Z,77.65
2023-04-25T07:16:39.141Z,78.47
2023-04-25T07:17:39.603Z,79.77
2023-04-25T07:18:40.057Z,79.05
2023-04-25T07:19:40.471Z,78.53
2023-04-25T07:20:40.897Z,78.33
2023-04-25T07:21:41.320Z,78.53
2023-04-25T07:22:41.750Z,77.40
2023-04-25T07:23:42.228Z,77.71
2023-04-25T07:24:42.669Z,77.71
2023-04-25T07:25:43.099Z,78.53
2023-04-25T07:26:43.521Z,77.30
2023-04-25T07:27:43.977Z,77.30
2023-04-25T07:28:44.435Z,78.94
2023-04-25T07:29:44.968Z,78.60
2023-04-25T07:30:45.425Z,77.54
2023-04-25T07:31:45.877Z,78.25
2023-04-25T07:32:45.839Z,77.06
2023-04-25T07:33:46.264Z,77.30
2023-04-25T07:34:46.683Z,78.85
2023-04-25T07:35:47.087Z,78.12
2023-04-25T07:36:47.515Z,77.37
2023-04-25T07:37:47.960Z,77.17
2023-04-25T07:38:48.656Z,77.26
2023-04-25T07:39:48.558Z,76.45
2023-04-25T07:40:48.994Z,75.93
2023-04-25T07:41:49.428Z,75.62
2023-04-25T07:42:49.854Z,76.14
2023-04-25T07:43:50.291Z,76.86
2023-04-25T07:44:50.709Z,75.11
2023-04-25T07:45:51.136Z,76.04
2023-04-25T07:46:51.594Z,74.08
2023-04-25T07:47:52.047Z,74.43
2023-04-25T07:48:52.852Z,75.56
2023-04-25T07:49:53.003Z,75.25
2023-04-25T07:50:53.497Z,75.62
2023-04-25T07:51:53.901Z,75.11
2023-04-25T07:52:54.303Z,72.96
2023-04-25T07:53:54.701Z,73.57
2023-04-25T07:54:55.143Z,72.14
2023-04-25T07:55:55.579Z,71.31
2023-04-25T07:56:56.014Z,71.42
2023-04-25T07:57:56.515Z,71.18
2023-04-25T07:58:56.987Z,69.84
2023-04-25T07:59:57.428Z,69.88
2023-04-25T08:00:57.859Z,69.78
2023-04-25T08:01:58.318Z,69.98
2023-04-25T08:02:58.934Z,70.77
2023-04-25T08:03:59.022Z,70.56
2023-04-25T08:04:59.317Z,70.36
2023-04-25T08:05:59.543Z,71.35
2023-04-25T08:06:59.616Z,70.73
2023-04-25T08:08:00.035Z,71.04
2023-04-25T08:09:00.444Z,71.25
2023-04-25T08:10:00.895Z,71.66
2023-04-25T08:11:01.343Z,71.66
2023-04-25T08:12:01.793Z,69.20
2023-04-25T08:13:02.228Z,69.20
2023-04-25T08:14:02.686Z,69.92
2023-04-25T08:15:03.119Z,70.97
2023-04-25T08:16:03.559Z,71.08
2023-04-25T08:17:04.022Z,72.96
2023-04-25T08:18:04.482Z,71.72
2023-04-25T08:19:04.989Z,72.55
2023-04-25T08:20:05.415Z,73.78
2023-04-25T08:21:05.828Z,73.95
2023-04-25T08:22:06.309Z,73.27
2023-04-25T08:23:06.765Z,71.83
2023-04-25T08:24:07.790Z,73.40
2023-04-25T08:25:07.549Z,74.43
2023-04-25T08:26:07.989Z,74.80
2023-04-25T08:27:08.440Z,73.78
2023-04-25T08:28:08.867Z,71.83
2023-04-25T08:29:09.326Z,73.47
2023-04-25T08:30:09.769Z,72.44
2023-04-25T08:31:10.256Z,72.34
2023-04-25T08:32:10.723Z,72.75
2023-04-25T08:33:11.196Z,74.40
2023-04-25T08:34:11.670Z,73.57
2023-04-25T08:35:12.114Z,74.08
2023-04-25T08:36:12.543Z,72.65
2023-04-25T08:37:12.975Z,73.78
2023-04-25T08:38:13.397Z,73.27
2023-04-25T08:39:13.918Z,73.88
2023-04-25T08:40:14.343Z,73.88
2023-04-25T08:41:14.795Z,74.19
2023-04-25T08:42:15.248Z,73.98
2023-04-25T08:43:15.684Z,73.98
2023-04-25T08:44:16.115Z,75.32
2023-04-25T08:45:16.545Z,72.96
2023-04-25T08:46:16.999Z,74.70
2023-04-25T08:47:17.456Z,75.15
2023-04-25T08:48:17.878Z,76.14
2023-04-25T08:49:18.325Z,76.04
2023-04-25T08:50:18.775Z,76.24
2023-04-25T08:51:19.957Z,75.73
2023-04-25T08:52:19.254Z,75.11
2023-04-25T08:53:19.884Z,75.73
2023-04-25T08:54:34.379Z,75.21
2023-04-25T08:55:19.896Z,75.62
2023-04-25T08:56:20.316Z,75.90
2023-04-25T08:57:20.729Z,76.04
2023-04-25T08:58:21.164Z,76.24
2023-04-25T08:59:21.784Z,76.24
2023-04-25T09:00:21.784Z,74.49
2023-04-25T09:01:21.723Z,73.68
2023-04-25T09:02:22.355Z,73.68
2023-04-25T09:03:22.433Z,73.91
2023-04-25T09:04:22.421Z,73.91
2023-04-25T09:05:22.901Z,73.88
2023-04-25T09:06:23.338Z,74.70
2023-04-25T09:07:23.780Z,75.83
2023-04-25T09:08:24.200Z,77.06
2023-04-25T09:09:24.634Z,77.54
2023-04-25T09:10:25.072Z,79.18
2023-04-25T09:11:25.513Z,79.83
2023-04-25T09:12:25.952Z,79.56
2023-04-25T09:13:26.374Z,80.38
2023-04-25T09:14:26.908Z,81.82
2023-04-25T09:15:26.884Z,82.06
2023-04-25T09:16:27.434Z,82.89
2023-04-25T09:17:27.372Z,83.81
2023-04-25T09:18:30.765Z,84.42
2023-04-25T09:19:39.515Z,84.74
2023-04-25T09:20:27.988Z,81.69
2023-04-25T09:21:28.398Z,83.64
2023-04-25T09:22:28.816Z,83.37
2023-04-25T09:23:29.244Z,84.34
2023-04-25T09:24:29.736Z,82.11
2023-04-25T09:25:30.150Z,83.28
2023-04-25T09:26:30.630Z,85.07
2023-04-25T09:27:31.064Z,87.24
2023-04-25T09:28:31.501Z,87.75
2023-04-25T09:29:31.922Z,87.54
2023-04-25T09:30:32.360Z,85.89
2023-04-25T09:31:32.818Z,86.79
2023-04-25T09:32:33.577Z,86.10
2023-04-25T09:33:33.539Z,86.52
2023-04-25T09:34:33.973Z,88.33
2023-04-25T09:35:33.956Z,88.53
2023-04-25T09:36:34.853Z,89.46
2023-04-25T09:37:34.746Z,89.56
2023-04-25T09:38:35.297Z,89.97
2023-04-25T09:39:35.845Z,90.59
2023-04-25T09:40:36.308Z,90.39
2023-04-25T09:41:36.843Z,88.53
2023-04-25T09:42:37.298Z,89.77
2023-04-25T09:43:37.761Z,91.00
2023-04-25T09:44:38.318Z,92.65
2023-04-25T09:45:38.814Z,91.52
2023-04-25T09:46:39.391Z,91.83
2023-04-25T09:47:40.016Z,92.86
2023-04-25T09:48:39.953Z,92.76
2023-04-25T09:49:40.409Z,92.65
2023-04-25T09:50:40.880Z,93.33
2023-04-25T09:51:41.332Z,93.02
2023-04-25T09:52:41.792Z,93.54
2023-04-25T09:53:42.305Z,94.36
2023-04-25T09:54:42.855Z,94.05
2023-04-25T09:55:43.396Z,93.95
2023-04-25T09:56:43.943Z,93.12
2023-04-25T09:57:44.499Z,93.23
2023-04-25T09:58:45.061Z,93.54
2023-04-25T09:59:45.618Z,93.90
2023-04-25T10:00:46.182Z,93.90
2023-04-25T10:01:46.768Z,93.08
2023-04-25T10:02:46.925Z,92.57
2023-04-25T10:03:46.987Z,91.95
2023-04-25T10:04:47.047Z,91.74
2023-04-25T10:05:47.039Z,90.92
2023-04-25T10:06:47.498Z,89.58
2023-04-25T10:07:47.991Z,89.69
2023-04-25T10:08:48.458Z,90.41
2023-04-25T10:09:48.915Z,90.81
2023-04-25T10:10:49.390Z,90.30
2023-04-25T10:11:49.824Z,90.20
2023-04-25T10:12:50.285Z,90.67
2023-04-25T10:13:50.989Z,90.26
2023-04-25T10:14:51.015Z,90.26
2023-04-25T10:15:51.465Z,88.82
2023-04-25T10:16:51.935Z,89.58
2023-04-25T10:17:52.431Z,92.01
2023-04-25T10:18:52.925Z,89.03
2023-04-25T10:19:53.364Z,89.95
2023-04-25T10:20:54.465Z,89.91
2023-04-25T10:21:54.375Z,87.69
2023-04-25T10:22:54.812Z,87.90
2023-04-25T10:23:55.237Z,88.82
2023-04-25T10:24:55.643Z,87.75
2023-04-25T10:25:56.090Z,86.62
2023-04-25T10:26:56.516Z,85.90
2023-04-25T10:27:56.938Z,87.07
2023-04-25T10:28:57.359Z,86.97
2023-04-25T10:29:57.784Z,84.81
2023-04-25T10:30:58.271Z,84.20
2023-04-25T10:31:58.804Z,84.50
2023-04-25T10:32:59.265Z,86.46
2023-04-25T10:33:59.744Z,86.46
2023-04-25T10:35:00.185Z,87.49
2023-04-25T10:36:00.614Z,87.07
2023-04-25T10:37:01.047Z,87.32
2023-04-25T10:38:01.479Z,86.29
2023-04-25T10:39:01.922Z,85.57
2023-04-25T10:40:02.356Z,86.85
2023-04-25T10:41:02.780Z,86.19
2023-04-25T10:42:03.193Z,84.99
2023-04-25T10:43:03.614Z,85.41
2023-04-25T10:44:04.027Z,87.67
2023-04-25T10:45:04.466Z,86.02
2023-04-25T10:46:04.940Z,86.54
2023-04-25T10:47:05.537Z,85.30
2023-04-25T10:48:05.573Z,84.99
2023-04-25T10:49:05.530Z,87.15
2023-04-25T10:50:05.972Z,87.57
2023-04-25T10:51:06.410Z,86.85
2023-04-25T10:52:06.838Z,87.05
2023-04-25T10:53:07.286Z,87.77
2023-04-25T10:54:07.762Z,88.18
2023-04-25T10:55:08.193Z,88.18
2023-04-25T10:56:10.481Z,88.70
2023-04-25T10:57:09.163Z,89.79
2023-04-25T10:58:09.598Z,89.38
2023-04-25T10:59:10.040Z,89.89
2023-04-25T11:00:10.489Z,89.07
2023-04-25T11:01:10.947Z,88.35
2023-04-25T11:02:11.528Z,87.84
2023-04-25T11:03:11.647Z,86.43
2023-04-25T11:04:11.736Z,87.26
2023-04-25T11:05:11.739Z,87.36
2023-04-25T11:06:12.183Z,87.15
2023-04-25T11:07:12.643Z,88.90
2023-04-25T11:08:13.128Z,88.90
2023-04-25T11:09:13.569Z,88.53
2023-04-25T11:10:14.073Z,89.97
2023-04-25T11:11:14.614Z,87.03
2023-04-25T11:12:15.066Z,87.99
2023-04-25T11:13:15.512Z,89.07
2023-04-25T11:14:15.948Z,89.22
2023-04-25T11:15:16.368Z,88.22
2023-04-25T11:16:26.748Z,88.89
2023-04-25T11:17:16.983Z,90.58
2023-04-25T11:18:17.581Z,91.50
2023-04-25T11:19:18.075Z,91.50
2023-04-25T11:20:18.541Z,89.75
2023-04-25T11:21:19.064Z,91.30
2023-04-25T11:22:19.602Z,90.62
2023-04-25T11:23:20.052Z,90.62
2023-04-25T11:24:20.513Z,90.93
2023-04-25T11:25:21.005Z,91.55
2023-04-25T11:26:21.520Z,91.55
2023-04-25T11:27:22.022Z,91.34
2023-04-25T11:28:22.766Z,91.86
2023-04-25T11:29:23.091Z,92.99
2023-04-25T11:30:23.604Z,92.99
2023-04-25T11:31:24.115Z,93.62
2023-04-25T11:32:25.473Z,93.24
2023-04-25T11:33:25.143Z,94.34
2023-04-25T11:34:25.129Z,94.65
2023-04-25T11:35:25.704Z,95.06
2023-04-25T11:36:26.274Z,94.75
2023-04-25T11:37:26.801Z,94.44
2023-04-25T11:38:28.034Z,94.65
2023-04-25T11:39:27.498Z,93.41
2023-04-25T11:40:27.998Z,94.85
2023-04-25T11:41:28.553Z,95.64
2023-04-25T11:42:29.060Z,94.13
2023-04-25T11:43:29.556Z,95.27
2023-04-25T11:44:30.075Z,95.06
2023-04-25T11:45:30.612Z,95.57
2023-04-25T11:46:31.307Z,96.15
2023-04-25T11:47:31.322Z,95.17
2023-04-25T11:48:31.839Z,94.96
2023-04-25T11:49:32.592Z,94.34
2023-04-25T11:50:32.612Z,94.92
2023-04-25T11:51:33.119Z,95.53
2023-04-25T11:52:33.653Z,95.22
2023-04-25T11:53:34.157Z,94.92
2023-04-25T11:54:34.651Z,95.32
2023-04-25T11:55:35.162Z,95.43
2023-04-25T11:56:35.625Z,94.19
2023-04-25T11:57:36.132Z,93.26
2023-04-25T11:58:37.011Z,93.98
2023-04-25T11:59:36.919Z,93.57
2023-04-25T12:00:37.413Z,94.60
2023-04-25T12:01:37.938Z,95.22
2023-04-25T12:02:38.595Z,94.40
2023-04-25T12:03:38.878Z,94.40
2023-04-25T12:04:39.278Z,94.77
2023-04-25T12:05:39.609Z,94.25
2023-04-25T12:06:39.717Z,94.97
2023-04-25T12:07:39.679Z,94.15
2023-04-25T12:08:40.181Z,93.84
2023-04-25T12:09:40.686Z,93.73
2023-04-25T12:10:41.205Z,93.32
2023-04-25T12:11:41.752Z,94.10
2023-04-25T12:12:42.266Z,93.79
2023-04-25T12:13:42.780Z,93.28
2023-04-25T12:14:43.337Z,93.28
2023-04-25T12:15:43.965Z,92.46
2023-04-25T12:16:44.102Z,92.76
2023-04-25T12:17:44.183Z,91.73
2023-04-25T12:18:44.684Z,92.86
2023-04-25T12:19:45.216Z,92.14
2023-04-25T12:20:45.706Z,91.52
2023-04-25T12:21:57.341Z,91.88
2023-04-25T12:22:46.336Z,92.21
2023-04-25T12:23:46.791Z,90.76
2023-04-25T12:24:47.308Z,89.94
2023-04-25T12:25:47.784Z,89.77
2023-04-25T12:26:48.278Z,90.86
2023-04-25T12:27:48.776Z,90.76
2023-04-25T12:28:49.564Z,91.48
2023-04-25T12:29:50.139Z,90.14
2023-04-25T12:30:50.086Z,88.49
2023-04-25T12:31:50.575Z,88.70
2023-04-25T12:32:50.692Z,90.61
2023-04-25T12:33:51.209Z,92.16
2023-04-25T12:34:51.701Z,91.30
2023-04-25T12:35:52.151Z,90.67
2023-04-25T12:36:52.587Z,91.50
2023-04-25T12:37:53.053Z,91.36
2023-04-25T12:38:53.758Z,88.43
2023-04-25T12:39:53.776Z,88.43
2023-04-25T12:40:54.223Z,88.64
2023-04-25T12:41:54.662Z,87.71
2023-04-25T12:42:55.101Z,85.14
2023-04-25T12:43:55.539Z,87.40
2023-04-25T12:44:55.975Z,85.44
2023-04-25T12:45:56.440Z,84.05
2023-04-25T12:46:56.924Z,83.94
2023-04-25T12:47:57.442Z,86.16
2023-04-25T12:49:05.290Z,84.93
2023-04-25T12:49:58.073Z,86.68
2023-04-25T12:50:58.527Z,86.54
2023-04-25T12:51:59.121Z,85.98
2023-04-25T12:52:58.946Z,86.50
2023-04-25T12:53:59.436Z,82.93
2023-04-25T12:54:59.891Z,82.59
2023-04-25T12:56:00.380Z,83.31
2023-04-25T12:57:00.873Z,85.12
2023-04-25T12:58:01.338Z,82.34